Wednesday, June 20, 2018, 3:41 AM EDT

KW99, Petersburg, Grant County Airport

Location: Petersburg, WV, United States Lat: 38.983
Local Time: 3:41 AM EDT ( 7:41 GMT) Lon: -79.133
Time Zone: US/Eastern Elev: 961 ft

Show me the last for .
Show Decoded

2018-06-20 03:15 METAR KW99 200715Z AUTO 00000KT 7SM BKN037 OVC045 21/21 A2991 RMK AO2 T02130211
                 =
2018-06-20 02:55 METAR KW99 200655Z AUTO 00000KT 10SM BKN036 OVC043 21/21 A2991 RMK AO2 T02130210
                 =
2018-06-20 02:35 METAR KW99 200635Z AUTO 00000KT 10SM BKN036 BKN043 22/21 A2992 RMK AO2 T02150211
                 =
2018-06-20 02:15 METAR KW99 200615Z AUTO 00000KT 7SM SCT036 OVC043 22/21 A2991 RMK AO2 T02150212
                 =
2018-06-20 01:55 METAR KW99 200555Z AUTO 00000KT 10SM BKN038 OVC043 22/21 A2991 RMK AO2 T02150212
                 10242 20213 403170213 =
2018-06-20 01:35 METAR KW99 200535Z AUTO 00000KT 5SM BR BKN038 OVC046 21/21 A2992 RMK AO2
                 T02130211 =
2018-06-20 01:15 METAR KW99 200515Z AUTO 00000KT 5SM BR OVC045 22/21 A2992 RMK AO2 T02150212 =
2018-06-20 00:55 METAR KW99 200455Z AUTO 00000KT 7SM SCT045 22/22 A2992 RMK AO2 T02180216 =
2018-06-20 00:35 METAR KW99 200435Z AUTO 00000KT 5SM BR CLR 22/22 A2992 RMK AO2 T02170215 =
2018-06-20 00:15 METAR KW99 200415Z AUTO 00000KT 7SM SCT039 22/22 A2992 RMK AO2 T02180216 =
2018-06-19 23:55 METAR KW99 200355Z AUTO 00000KT 7SM SCT037 SCT047 22/22 A2993 RMK AO2 T02200216
                 =
2018-06-19 23:35 METAR KW99 200335Z AUTO 00000KT 10SM BKN049 23/22 A2993 RMK AO2 T02250221 =
2018-06-19 23:15 METAR KW99 200315Z AUTO 00000KT 10SM SCT036 OVC049 23/22 A2993 RMK AO2 T02250221
                 =
2018-06-19 22:55 METAR KW99 200255Z AUTO 00000KT 10SM BKN035 BKN047 OVC050 23/22 A2994 RMK AO2
                 T02270222 =
2018-06-19 22:35 METAR KW99 200235Z AUTO 00000KT 10SM SCT034 BKN041 OVC050 23/22 A2994 RMK AO2
                 T02270223 =
2018-06-19 22:15 METAR KW99 200215Z AUTO 00000KT 10SM BKN037 BKN043 OVC050 23/23 A2994 RMK AO2
                 T02300226 =
2018-06-19 21:55 METAR KW99 200155Z AUTO 00000KT 10SM BKN037 OVC046 23/23 A2994 RMK AO2 T02310227
                 =
2018-06-19 21:35 METAR KW99 200135Z AUTO 00000KT 10SM SCT035 BKN043 BKN049 23/23 A2993 RMK AO2
                 T02320228 =
2018-06-19 21:15 METAR KW99 200115Z AUTO 00000KT 7SM SCT050 23/23 A2993 RMK AO2 T02300227 =
2018-06-19 20:55 METAR KW99 200055Z AUTO 00000KT 10SM SCT050 23/23 A2992 RMK AO2 T02310227 =
2018-06-19 20:35 METAR KW99 200035Z AUTO 00000KT 7SM SCT039 SCT045 24/23 A2992 RMK AO2 T02360230
                 =
2018-06-19 20:15 METAR KW99 200015Z AUTO 00000KT 10SM -RA SCT037 SCT042 BKN050 24/23 RMK AO2
                 T02410230 =
2018-06-19 19:55 METAR KW99 192355Z AUTO 00000KT 10SM -RA SCT038 SCT050 BKN080 24/23 A2991 RMK
                 AO2 T02400230 10317 20236 =
2018-06-19 19:35 METAR KW99 192335Z AUTO 00000KT 10SM -RA SCT080 25/23 A2991 RMK AO2 LTG DSNT SE
                 T02460227 =
2018-06-19 19:15 METAR KW99 192315Z AUTO 00000KT 10SM SCT044 SCT050 25/23 A2990 RMK AO2 T02450227
                 =
2018-06-19 18:55 METAR KW99 192255Z AUTO 00000KT 10SM SCT044 BKN050 25/22 A2992 RMK AO2 LTG DSNT
                 SE AND W T02460224 =
2018-06-19 18:40 METAR KW99 192240Z AUTO 16003KT 10SM -TSDZ SCT043 SCT050 SCT060 25/22 A2989 RMK
                 AO2 LTG DSNT SW AND W T02460223 =
2018-06-19 18:15 METAR KW99 192215Z AUTO 18003KT 10SM -TSDZ CLR 25/22 A2990 RMK AO2 LTG DSNT SW
                 AND W T02510222 =
2018-06-19 17:55 METAR KW99 192155Z AUTO 18003KT 10SM VCTS CLR 26/22 A2989 RMK AO2 LTG DSNT SW
                 AND W T02550224 =
2018-06-19 17:35 METAR KW99 192135Z AUTO 18004KT 10SM SCT019 SCT120 26/22 A2990 RMK AO2 LTG DSNT
                 SW AND W T02560223 =
2018-06-19 17:15 METAR KW99 192115Z AUTO 16004KT 10SM SCT120 26/22 A2991 RMK AO2 LTG DSNT SE
                 T02610223 =
2018-06-19 16:55 METAR KW99 192055Z AUTO 15004KT 10SM CLR 26/22 A2991 RMK AO2 LTG DSNT SE
                 T02570223 =
2018-06-19 16:35 METAR KW99 192035Z AUTO 00000KT 10SM -RA SCT041 SCT050 SCT065 25/22 A2991 RMK
                 AO2 LTG DSNT SE T02540221 =
2018-06-19 16:15 METAR KW99 192015Z AUTO 00000KT 10SM -VCTSRA SCT026 SCT036 BKN045 24/21 A2990
                 RMK AO2 LTG DSNT E THRU S T02430214 =
2018-06-19 15:55 METAR KW99 191955Z AUTO 01006G15KT 10SM TSRA SCT032 BKN045 BKN055 24/21 A2990
                 RMK AO2 LTG DSNT E THRU W T02400213 =
2018-06-19 15:40 METAR KW99 191940Z AUTO 02011G19KT 360V060 10SM -TSRA SCT039 BKN045 OVC080 26/22
                 A2991 RMK AO2 LTG DSNT ALQS T02630216 =
2018-06-19 15:15 METAR KW99 191915Z AUTO 34007KT 10SM BKN050 BKN080 BKN095 27/22 A2989 RMK AO2
                 LTG DSNT ALQS T02740221 =
2018-06-19 14:55 METAR KW99 191855Z AUTO 34004KT 10SM BKN050 BKN065 OVC100 29/21 A2987 RMK AO2
                 LTG DSNT NW THRU E T02870210 =
2018-06-19 14:35 METAR KW99 191835Z AUTO 30010G15KT 10SM BKN055 BKN075 BKN090 31/21 A2987 RMK AO2
                 LTG DSNT NE E AND W T03110212 =
2018-06-19 14:15 METAR KW99 191815Z AUTO 26010KT 10SM BKN055 BKN075 OVC090 31/22 A2987 RMK AO2
                 LTG DSNT N AND E T03130220 =
2018-06-19 13:55 METAR KW99 191755Z AUTO 26008G16KT 10SM SCT049 BKN055 OVC100 31/22 A2988 RMK AO2
                 LTG DSNT NE T03080215 10312 20275 =
2018-06-19 13:35 METAR KW99 191735Z AUTO 28006KT 10SM SCT050 BKN055 BKN080 31/22 A2988 RMK AO2
                 LTG DSNT N T03060216 =
2018-06-19 13:15 METAR KW99 191715Z AUTO 25008KT 10SM SCT049 BKN055 BKN110 31/22 A2989 RMK AO2
                 T03080222 =
2018-06-19 12:55 METAR KW99 191655Z AUTO 26006KT 10SM SCT049 SCT065 BKN090 31/22 A2990 RMK AO2
                 LTG DSNT N T03090222 =
2018-06-19 12:35 METAR KW99 191635Z AUTO 25005KT 10SM SCT049 BKN055 OVC070 30/22 A2991 RMK AO2
                 LTG DSNT N T03000218 =
2018-06-19 12:15 METAR KW99 191615Z AUTO 27006KT 10SM SCT049 BKN055 BKN080 30/22 A2992 RMK AO2
                 T02970219 =
2018-06-19 11:55 METAR KW99 191555Z AUTO 26009KT 10SM SCT048 SCT050 30/23 A2992 RMK AO2 T03040225
                 =
2018-06-19 11:35 METAR KW99 191535Z AUTO 25004KT 10SM BKN046 BKN050 30/22 A2992 RMK AO2 T02970221
                 =
2018-06-19 11:15 METAR KW99 191515Z AUTO 27005KT 10SM BKN046 BKN055 29/22 A2993 RMK AO2 T02930219
                 =
2018-06-19 10:55 METAR KW99 191455Z AUTO 27006KT 10SM SCT043 SCT049 30/22 A2992 RMK AO2 T02950218
                 =
2018-06-19 10:35 METAR KW99 191435Z AUTO 29010G16KT 10SM SCT042 BKN049 29/22 A2992 RMK AO2
                 T02930218 =
2018-06-19 10:15 METAR KW99 191415Z AUTO 30006KT 10SM SCT041 BKN049 BKN055 29/22 A2993 RMK AO2
                 T02900217 =
2018-06-19 09:55 METAR KW99 191355Z AUTO 29004KT 10SM SCT041 BKN049 29/22 A2993 RMK AO2 T02900222
                 =
2018-06-19 09:35 METAR KW99 191335Z AUTO 30006KT 10SM BKN041 28/22 A2994 RMK AO2 T02820220 =
2018-06-19 09:20 METAR KW99 191320Z AUTO 31005KT 10SM BKN042 BKN049 28/22 A2994 RMK AO2 T02820218
                 =
2018-06-19 08:55 METAR KW99 191255Z AUTO 30009G18KT 10SM BKN040 BKN047 BKN050 28/21 A2994 RMK AO2
                 T02800213 =
2018-06-19 08:35 METAR KW99 191235Z AUTO 32003KT 10SM SCT040 BKN045 BKN050 28/22 A2994 RMK AO2
                 T02770216 =
2018-06-19 08:15 METAR KW99 191215Z AUTO 32006KT 10SM SCT040 BKN046 BKN110 28/21 A2994 RMK AO2
                 T02780211 =
2018-06-19 07:55 METAR KW99 191155Z AUTO 30004KT 10SM SCT043 SCT110 28/22 A2994 RMK AO2 T02770220
                 10277 20220 =
2018-06-19 07:35 METAR KW99 191135Z AUTO 30005KT 10SM CLR 27/21 A2994 RMK AO2 T02710214 =
2018-06-19 07:15 METAR KW99 191115Z AUTO 28007KT 10SM SCT100 27/21 A2994 RMK AO2 T02650213 =
2018-06-19 06:55 METAR KW99 191055Z AUTO 28004KT 10SM SCT044 BKN100 27/21 A2995 RMK AO2 T02650210
                 =
2018-06-19 06:35 METAR KW99 191035Z AUTO 26004KT 10SM SCT044 SCT080 SCT110 25/21 A2995 RMK AO2
                 T02530206 =
2018-06-19 06:15 METAR KW99 191015Z AUTO 27003KT 10SM SCT100 25/20 A2994 RMK AO2 T02540204 =
2018-06-19 05:55 METAR KW99 190955Z AUTO 26005KT 10SM CLR 26/20 A2994 RMK AO2 T02610203 =
2018-06-19 05:35 METAR KW99 190935Z AUTO 26006G15KT 10SM CLR 26/20 A2994 RMK AO2 T02620202 =
2018-06-19 05:15 METAR KW99 190915Z AUTO 28007KT 10SM CLR 26/20 A2994 RMK AO2 T02630204 =
2018-06-19 04:55 METAR KW99 190855Z AUTO 25006G14KT 10SM SCT046 SCT095 27/20 A2994 RMK AO2
                 T02660204 =
2018-06-19 04:35 METAR KW99 190835Z AUTO 27003KT 10SM SCT046 25/20 A2994 RMK AO2 T02500204 =
2018-06-19 04:15 METAR KW99 190815Z AUTO 00000KT 10SM SCT046 26/20 A2994 RMK AO2 T02640204 =
2018-06-19 03:55 METAR KW99 190755Z AUTO 00000KT 10SM SCT046 25/21 A2994 RMK AO2 T02490205 =

Support USWX by starting your Amazon purchase here.